createdAt,value
2023-03-11T00:00:31.140Z,85.70
2023-03-11T00:03:01.251Z,85.80
2023-03-11T00:05:31.350Z,85.70
2023-03-11T00:08:00.152Z,85.70
2023-03-11T00:10:30.875Z,85.80
2023-03-11T00:12:59.517Z,85.80
2023-03-11T00:15:30.854Z,85.70
2023-03-11T00:17:59.462Z,85.80
2023-03-11T00:20:29.774Z,85.80
2023-03-11T00:22:58.546Z,85.80
2023-03-11T00:25:29.567Z,85.80
2023-03-11T00:27:58.083Z,85.80
2023-03-11T00:30:28.519Z,85.80
2023-03-11T00:32:59.100Z,85.80
2023-03-11T00:35:29.381Z,85.90
2023-03-11T00:37:59.099Z,85.90
2023-03-11T00:40:30.329Z,85.90
2023-03-11T00:42:59.465Z,85.80
2023-03-11T00:45:30.100Z,86.00
2023-03-11T00:47:58.755Z,86.00
2023-03-11T00:50:30.065Z,85.90
2023-03-11T00:52:58.936Z,86.00
2023-03-11T00:55:29.336Z,85.90
2023-03-11T00:58:00.752Z,85.90
2023-03-11T01:00:36.321Z,86.00
2023-03-11T01:03:04.672Z,85.90
2023-03-11T01:05:34.585Z,85.90
2023-03-11T01:08:04.837Z,85.90
2023-03-11T01:10:34.424Z,85.90
2023-03-11T01:13:02.726Z,86.00
2023-03-11T01:15:34.889Z,85.90
2023-03-11T01:18:03.909Z,85.90
2023-03-11T01:20:34.645Z,85.90
2023-03-11T01:23:02.949Z,85.90
2023-03-11T01:25:31.482Z,85.90
2023-03-11T01:27:59.725Z,85.90
2023-03-11T01:30:29.413Z,85.90
2023-03-11T01:32:59.454Z,85.90
2023-03-11T01:35:30.048Z,85.90
2023-03-11T01:37:59.223Z,85.90
2023-03-11T01:40:31.980Z,86.00
2023-03-11T01:43:04.897Z,86.00
2023-03-11T01:46:12.634Z,86.00
2023-03-11T01:48:42.408Z,86.00
2023-03-11T01:51:10.861Z,86.00
2023-03-11T01:53:39.153Z,86.00
2023-03-11T01:56:07.968Z,86.00
2023-03-11T01:58:40.563Z,86.00
2023-03-11T02:01:08.986Z,86.00
2023-03-11T02:03:40.862Z,86.00
2023-03-11T02:06:11.968Z,86.00
2023-03-11T02:08:41.962Z,86.00
2023-03-11T02:11:16.811Z,86.10
2023-03-11T02:13:47.453Z,86.10
2023-03-11T02:16:16.017Z,86.00
2023-03-11T02:18:46.496Z,86.00
2023-03-11T02:21:26.363Z,86.10
2023-03-11T02:24:03.705Z,86.00
2023-03-11T02:26:37.867Z,86.10
2023-03-11T02:29:09.635Z,86.10
2023-03-11T02:31:42.907Z,86.10
2023-03-11T02:35:11.084Z,86.90
2023-03-11T02:37:45.337Z,86.10
2023-03-11T02:40:37.473Z,86.20
2023-03-11T02:43:08.686Z,86.20
2023-03-11T02:45:40.997Z,86.10
2023-03-11T02:48:11.769Z,86.20
2023-03-11T02:50:41.178Z,86.20
2023-03-11T02:53:10.006Z,86.20
2023-03-11T02:55:38.300Z,86.00
2023-03-11T02:58:08.453Z,86.10
2023-03-11T03:00:38.333Z,86.10
2023-03-11T03:03:10.582Z,86.20
2023-03-11T03:05:39.860Z,86.10
2023-03-11T03:08:08.095Z,86.10
2023-03-11T03:10:36.460Z,86.20
2023-03-11T03:13:04.869Z,86.20
2023-03-11T03:15:33.077Z,86.20
2023-03-11T03:18:03.447Z,86.20
2023-03-11T03:20:31.687Z,86.20
2023-03-11T03:23:02.829Z,86.20
2023-03-11T03:25:33.090Z,86.20
2023-03-11T03:28:05.876Z,86.20
2023-03-11T03:30:37.298Z,86.20
2023-03-11T03:33:07.950Z,86.30
2023-03-11T03:35:36.658Z,86.30
2023-03-11T03:38:11.482Z,86.20
2023-03-11T03:40:46.234Z,86.20
2023-03-11T03:43:15.732Z,86.30
2023-03-11T03:45:46.427Z,86.40
2023-03-11T03:48:16.355Z,86.30
2023-03-11T03:50:46.833Z,86.30
2023-03-11T03:53:18.156Z,86.30
2023-03-11T03:55:46.958Z,86.30
2023-03-11T03:58:15.621Z,86.20
2023-03-11T04:00:45.035Z,86.30
2023-03-11T04:03:14.950Z,86.40
2023-03-11T04:05:50.190Z,86.40
2023-03-11T04:08:18.680Z,86.30
2023-03-11T04:10:58.154Z,86.30
2023-03-11T04:13:27.916Z,86.30
2023-03-11T04:15:56.765Z,86.30
2023-03-11T04:18:26.610Z,86.30
2023-03-11T04:20:55.710Z,86.40
2023-03-11T04:23:24.183Z,86.40
2023-03-11T04:25:52.822Z,86.40
2023-03-11T04:28:21.699Z,86.50
2023-03-11T04:30:50.016Z,86.50
2023-03-11T04:33:18.975Z,86.50
2023-03-11T04:35:49.295Z,86.60
2023-03-11T04:38:19.694Z,86.60
2023-03-11T04:40:48.127Z,86.60
2023-03-11T04:43:16.842Z,86.70
2023-03-11T04:45:46.515Z,86.70
2023-03-11T04:48:14.994Z,86.70
2023-03-11T04:50:43.543Z,86.70
2023-03-11T04:53:13.607Z,86.70
2023-03-11T04:55:41.909Z,86.70
2023-03-11T04:58:10.415Z,86.80
2023-03-11T05:00:41.270Z,86.80
2023-03-11T05:03:12.422Z,86.80
2023-03-11T05:05:41.400Z,86.80
2023-03-11T05:08:10.371Z,86.80
2023-03-11T05:10:41.887Z,86.90
2023-03-11T05:13:11.643Z,86.90
2023-03-11T05:15:42.608Z,86.90
2023-03-11T05:18:11.899Z,86.90
2023-03-11T05:20:40.711Z,86.90
2023-03-11T05:23:10.364Z,86.90
2023-03-11T05:25:40.609Z,86.90
2023-03-11T05:28:09.867Z,86.90
2023-03-11T05:30:43.024Z,87.00
2023-03-11T05:33:11.851Z,87.00
2023-03-11T05:35:40.756Z,87.00
2023-03-11T05:38:09.316Z,87.10
2023-03-11T05:40:37.631Z,87.10
2023-03-11T05:43:07.446Z,87.00
2023-03-11T05:45:39.617Z,87.00
2023-03-11T05:48:08.491Z,87.00
2023-03-11T05:50:39.241Z,87.10
2023-03-11T05:53:08.127Z,87.10
2023-03-11T05:55:36.875Z,87.10
2023-03-11T05:58:07.481Z,87.10
2023-03-11T06:00:36.861Z,87.10
2023-03-11T06:03:06.096Z,87.00
2023-03-11T06:05:34.331Z,87.00
2023-03-11T06:08:02.646Z,87.10
2023-03-11T06:10:30.946Z,87.10
2023-03-11T06:12:59.241Z,87.90
2023-03-11T06:15:34.044Z,87.00
2023-03-11T06:18:02.465Z,87.00
2023-03-11T06:20:30.941Z,87.00
2023-03-11T06:22:59.309Z,87.00
2023-03-11T06:25:28.488Z,87.00
2023-03-11T06:27:56.700Z,87.00
2023-03-11T06:30:26.463Z,87.10
2023-03-11T06:33:06.932Z,87.00
2023-03-11T06:35:35.233Z,87.00
2023-03-11T06:38:03.745Z,87.00
2023-03-11T06:40:32.048Z,87.00
2023-03-11T06:43:00.369Z,87.00
2023-03-11T06:45:32.972Z,87.00
2023-03-11T06:48:01.615Z,87.00
2023-03-11T06:50:32.098Z,87.00
2023-03-11T06:53:03.034Z,86.90
2023-03-11T06:55:32.387Z,86.90
2023-03-11T06:58:01.820Z,86.90
2023-03-11T07:00:31.254Z,86.90
2023-03-11T07:03:01.121Z,86.80
2023-03-11T07:05:30.797Z,86.70
2023-03-11T07:08:03.605Z,86.70
2023-03-11T07:10:31.864Z,86.60
2023-03-11T07:13:00.214Z,86.60
2023-03-11T07:15:28.645Z,86.70
2023-03-11T07:17:57.228Z,86.50
2023-03-11T07:20:25.760Z,86.50
2023-03-11T07:22:58.613Z,86.40
2023-03-11T07:25:26.982Z,86.40
2023-03-11T07:27:55.251Z,86.30
2023-03-11T07:30:23.518Z,86.40
2023-03-11T07:32:51.884Z,86.40
2023-03-11T07:35:20.260Z,86.30
2023-03-11T07:37:48.510Z,86.30
2023-03-11T07:40:18.696Z,86.30
2023-03-11T07:42:47.060Z,86.30
2023-03-11T07:45:15.489Z,86.20
2023-03-11T07:47:43.764Z,86.20
2023-03-11T07:50:12.898Z,86.20
2023-03-11T07:52:41.194Z,86.10
2023-03-11T07:55:10.473Z,86.10
2023-03-11T07:57:40.108Z,86.10
2023-03-11T08:00:09.906Z,86.10
2023-03-11T08:02:40.946Z,86.10
2023-03-11T08:05:10.233Z,86.90
2023-03-11T08:07:38.606Z,86.00
2023-03-11T08:10:07.935Z,86.10
2023-03-11T08:12:36.311Z,86.00
2023-03-11T08:15:07.009Z,86.00
2023-03-11T08:17:35.227Z,85.90
2023-03-11T08:20:04.924Z,85.90
2023-03-11T08:22:33.265Z,85.80
2023-03-11T08:25:01.549Z,85.80
2023-03-11T08:27:30.489Z,85.90
2023-03-11T08:29:59.763Z,85.90
2023-03-11T08:32:31.590Z,85.90
2023-03-11T08:35:01.360Z,85.90
2023-03-11T08:37:31.544Z,85.80
2023-03-11T08:39:59.981Z,85.90
2023-03-11T08:42:28.328Z,85.90
2023-03-11T08:44:56.698Z,85.90
2023-03-11T08:47:25.051Z,85.90
2023-03-11T08:49:54.731Z,85.90
2023-03-11T08:52:23.068Z,85.80
2023-03-11T08:54:51.444Z,85.90
2023-03-11T08:57:19.763Z,85.80
2023-03-11T08:59:48.090Z,85.70
2023-03-11T09:02:16.380Z,85.70
2023-03-11T09:04:44.730Z,85.60
2023-03-11T09:07:19.375Z,85.70
2023-03-11T09:09:47.629Z,85.60
2023-03-11T09:12:16.008Z,86.20
2023-03-11T09:14:45.376Z,85.60
2023-03-11T09:17:14.373Z,85.50
2023-03-11T09:19:42.968Z,85.60
2023-03-11T09:22:11.303Z,86.20
2023-03-11T09:24:41.024Z,85.20
2023-03-11T09:27:09.354Z,84.70
2023-03-11T09:29:37.717Z,84.60
2023-03-11T09:32:06.720Z,84.80
2023-03-11T09:34:35.262Z,84.80
2023-03-11T09:37:03.537Z,84.90
2023-03-11T09:39:31.833Z,84.70
2023-03-11T09:42:06.312Z,84.60
2023-03-11T09:44:41.655Z,84.50
2023-03-11T09:47:31.555Z,84.50
2023-03-11T09:50:27.630Z,84.70
2023-03-11T09:53:14.239Z,85.30
2023-03-11T09:55:46.302Z,84.60
2023-03-11T09:58:36.732Z,84.80
2023-03-11T10:01:15.442Z,84.50
2023-03-11T10:03:45.616Z,84.60
2023-03-11T10:06:17.826Z,84.60
2023-03-11T10:08:53.613Z,84.50
2023-03-11T10:11:47.052Z,84.50
2023-03-11T10:14:29.392Z,84.70
2023-03-11T10:17:05.421Z,84.80
2023-03-11T10:19:42.529Z,84.50
2023-03-11T10:22:19.200Z,84.60
2023-03-11T10:24:58.699Z,84.60
2023-03-11T10:27:31.212Z,84.60
2023-03-11T10:30:08.067Z,84.70
2023-03-11T10:32:42.018Z,84.70
2023-03-11T10:35:18.461Z,84.80
2023-03-11T10:37:52.918Z,84.70
2023-03-11T10:40:27.235Z,84.70
2023-03-11T10:42:58.504Z,84.70
2023-03-11T10:45:30.044Z,84.60
2023-03-11T10:47:58.969Z,84.70
2023-03-11T10:50:27.429Z,84.70
2023-03-11T10:53:16.012Z,84.50
2023-03-11T10:55:47.889Z,84.60
2023-03-11T10:58:18.501Z,84.50
2023-03-11T11:01:00.509Z,84.50
2023-03-11T11:03:29.566Z,84.50
2023-03-11T11:06:04.252Z,84.40
2023-03-11T11:08:33.426Z,84.40
2023-03-11T11:11:03.206Z,84.30
2023-03-11T11:13:34.486Z,84.30
2023-03-11T11:16:07.141Z,84.30
2023-03-11T11:18:38.214Z,84.30
2023-03-11T11:21:08.773Z,84.30
2023-03-11T11:23:43.562Z,85.10
2023-03-11T11:26:18.996Z,84.20
2023-03-11T11:28:47.592Z,84.30
2023-03-11T11:31:25.218Z,84.20
2023-03-11T11:33:55.238Z,84.30
2023-03-11T11:36:28.088Z,84.20
2023-03-11T11:38:57.489Z,84.30
2023-03-11T11:41:30.143Z,84.40
2023-03-11T11:44:02.397Z,84.30
2023-03-11T11:46:38.266Z,84.50
2023-03-11T11:49:17.928Z,84.40
2023-03-11T11:51:50.328Z,84.40
2023-03-11T11:54:24.268Z,84.40
2023-03-11T11:56:54.475Z,84.50
2023-03-11T11:59:24.241Z,84.50
2023-03-11T12:02:07.401Z,84.40
2023-03-11T12:04:49.213Z,84.40
2023-03-11T12:07:41.091Z,84.50
2023-03-11T12:10:27.439Z,84.40
2023-03-11T12:13:29.025Z,84.50
2023-03-11T12:16:02.687Z,84.50
2023-03-11T12:18:38.950Z,84.70
2023-03-11T12:21:17.165Z,84.70
2023-03-11T12:23:59.840Z,84.80
2023-03-11T12:26:33.821Z,84.80
2023-03-11T12:29:08.081Z,84.90
2023-03-11T12:31:39.897Z,84.80
2023-03-11T12:34:13.338Z,84.80
2023-03-11T12:36:43.974Z,84.80
2023-03-11T12:39:23.940Z,84.80
2023-03-11T12:42:16.715Z,84.80
2023-03-11T12:44:46.535Z,84.80
2023-03-11T12:47:25.780Z,84.80
2023-03-11T12:49:57.436Z,84.80
2023-03-11T12:52:30.583Z,84.70
2023-03-11T12:55:37.684Z,84.80
2023-03-11T12:58:43.484Z,84.80
2023-03-11T13:01:35.403Z,84.80
2023-03-11T13:04:19.758Z,84.70
2023-03-11T13:07:21.756Z,84.60
2023-03-11T13:10:03.097Z,84.70
2023-03-11T13:12:43.163Z,84.60
2023-03-11T13:15:37.501Z,84.60
2023-03-11T13:18:18.818Z,84.70
2023-03-11T13:20:51.553Z,84.70
2023-03-11T13:23:30.836Z,84.70
2023-03-11T13:26:17.525Z,84.70
2023-03-11T13:29:06.769Z,84.70
2023-03-11T13:31:48.278Z,84.70
2023-03-11T13:34:19.213Z,84.70
2023-03-11T13:37:08.904Z,84.70
2023-03-11T13:39:56.993Z,84.60
2023-03-11T13:42:32.405Z,84.70
2023-03-11T13:45:01.860Z,84.70
2023-03-11T13:47:31.380Z,84.90
2023-03-11T13:50:04.468Z,84.70
2023-03-11T13:52:34.743Z,84.90
2023-03-11T13:55:07.498Z,84.70
2023-03-11T13:57:37.740Z,84.70
2023-03-11T14:00:17.574Z,84.70
2023-03-11T14:02:51.016Z,84.80
2023-03-11T14:05:22.308Z,84.80
2023-03-11T14:07:50.595Z,84.80
2023-03-11T14:10:28.811Z,84.70
2023-03-11T14:13:15.230Z,84.60
2023-03-11T14:15:53.152Z,84.60
2023-03-11T14:18:31.146Z,84.60
2023-03-11T14:21:00.241Z,84.60
2023-03-11T14:23:32.451Z,85.40
2023-03-11T14:26:08.911Z,84.50
2023-03-11T14:28:41.340Z,84.60
2023-03-11T14:31:21.270Z,84.50
2023-03-11T14:33:57.160Z,84.60
2023-03-11T14:36:25.609Z,84.50
2023-03-11T14:38:54.049Z,84.40
2023-03-11T14:41:24.038Z,84.40
2023-03-11T14:43:55.223Z,84.40
2023-03-11T14:46:28.092Z,84.30
2023-03-11T14:48:58.306Z,84.40
2023-03-11T14:51:33.277Z,84.30
2023-03-11T14:54:09.799Z,84.30
2023-03-11T14:56:42.481Z,84.30
2023-03-11T14:59:16.382Z,84.20
2023-03-11T15:01:46.966Z,84.20
2023-03-11T15:04:23.859Z,84.20
2023-03-11T15:06:52.445Z,84.20
2023-03-11T15:09:23.440Z,84.20
2023-03-11T15:11:55.308Z,84.20
2023-03-11T15:14:26.037Z,84.20
2023-03-11T15:16:55.543Z,84.20
2023-03-11T15:19:34.542Z,84.10
2023-03-11T15:22:22.503Z,84.10
2023-03-11T15:24:52.749Z,84.20
2023-03-11T15:27:30.133Z,84.20
2023-03-11T15:30:00.175Z,84.20
2023-03-11T15:32:40.153Z,84.10
2023-03-11T15:35:19.876Z,84.20
2023-03-11T15:37:49.665Z,84.20
2023-03-11T15:40:30.010Z,84.20
2023-03-11T15:43:30.501Z,84.20
2023-03-11T15:46:01.218Z,84.20
2023-03-11T15:48:31.253Z,84.20
2023-03-11T15:51:01.246Z,84.00
2023-03-11T15:53:30.781Z,84.20
2023-03-11T15:56:07.374Z,84.10
2023-03-11T15:58:39.165Z,84.10
2023-03-11T16:01:07.704Z,84.20
2023-03-11T16:03:36.517Z,84.20
2023-03-11T16:06:05.143Z,84.10
2023-03-11T16:08:34.612Z,84.30
2023-03-11T16:11:03.079Z,84.20
2023-03-11T16:13:31.583Z,84.30
2023-03-11T16:16:03.457Z,84.20
2023-03-11T16:18:33.982Z,84.30
2023-03-11T16:21:09.977Z,84.30
2023-03-11T16:23:51.107Z,84.40
2023-03-11T16:26:21.462Z,84.40
2023-03-11T16:28:49.708Z,84.40
2023-03-11T16:31:19.556Z,84.50
2023-03-11T16:33:47.915Z,84.40
2023-03-11T16:36:16.346Z,84.40
2023-03-11T16:38:46.690Z,84.50
2023-03-11T16:41:15.744Z,84.40
2023-03-11T16:43:44.192Z,84.50
2023-03-11T16:46:12.611Z,84.50
2023-03-11T16:48:42.307Z,84.50
2023-03-11T16:51:10.724Z,84.50
2023-03-11T16:53:38.963Z,84.50
2023-03-11T16:56:07.861Z,84.50
2023-03-11T16:58:36.179Z,84.50
2023-03-11T17:01:04.662Z,84.50
2023-03-11T17:03:41.908Z,84.50
2023-03-11T17:06:12.266Z,84.50
2023-03-11T17:08:40.580Z,84.50
2023-03-11T17:11:16.301Z,84.50
2023-03-11T17:13:44.715Z,84.40
2023-03-11T17:16:13.760Z,84.50
2023-03-11T17:18:42.127Z,84.40
2023-03-11T17:21:15.476Z,84.50
2023-03-11T17:23:44.164Z,84.50
2023-03-11T17:26:15.633Z,84.50
2023-03-11T17:28:44.517Z,84.50
2023-03-11T17:31:13.970Z,84.50
2023-03-11T17:33:43.526Z,84.50
2023-03-11T17:36:16.008Z,84.50
2023-03-11T17:38:44.813Z,84.60
2023-03-11T17:41:15.364Z,84.50
2023-03-11T17:43:44.748Z,84.60
2023-03-11T17:46:15.484Z,84.50
2023-03-11T17:48:44.256Z,84.60
2023-03-11T17:51:15.469Z,84.60
2023-03-11T17:53:45.987Z,84.50
2023-03-11T17:56:16.467Z,85.60
2023-03-11T17:58:45.061Z,84.70
2023-03-11T18:01:16.075Z,84.70
2023-03-11T18:03:44.473Z,84.80
2023-03-11T18:06:14.598Z,84.80
2023-03-11T18:08:43.134Z,84.90
2023-03-11T18:11:17.563Z,84.80
2023-03-11T18:13:47.056Z,84.80
2023-03-11T18:16:17.679Z,84.90
2023-03-11T18:18:46.385Z,84.90
2023-03-11T18:21:18.118Z,84.80
2023-03-11T18:23:47.174Z,84.80
2023-03-11T18:26:17.393Z,84.80
2023-03-11T18:28:46.465Z,84.80
2023-03-11T18:31:16.142Z,84.90
2023-03-11T18:33:49.152Z,84.90
2023-03-11T18:36:21.390Z,84.90
2023-03-11T18:38:50.627Z,84.80
2023-03-11T18:41:18.909Z,85.00
2023-03-11T18:43:47.242Z,84.90
2023-03-11T18:46:17.509Z,84.90
2023-03-11T18:48:46.451Z,84.90
2023-03-11T18:51:15.346Z,84.90
2023-03-11T18:53:44.976Z,85.00
2023-03-11T18:56:15.215Z,85.60
2023-03-11T18:58:43.869Z,84.90
2023-03-11T19:01:15.104Z,84.90
2023-03-11T19:03:43.928Z,85.00
2023-03-11T19:06:14.072Z,84.90
2023-03-11T19:08:42.538Z,84.90
2023-03-11T19:11:13.736Z,85.00
2023-03-11T19:13:47.095Z,85.00
2023-03-11T19:16:17.740Z,84.90
2023-03-11T19:18:46.607Z,85.70
2023-03-11T19:21:16.184Z,85.00
2023-03-11T19:23:45.311Z,84.90
2023-03-11T19:26:15.319Z,84.80
2023-03-11T19:28:43.523Z,84.90
2023-03-11T19:31:11.820Z,84.90
2023-03-11T19:33:40.383Z,84.80
2023-03-11T19:36:09.965Z,84.90
2023-03-11T19:38:39.569Z,84.90
2023-03-11T19:41:09.742Z,84.90
2023-03-11T19:43:39.346Z,84.90
2023-03-11T19:46:09.928Z,84.90
2023-03-11T19:48:38.274Z,84.90
2023-03-11T19:51:07.105Z,85.00
2023-03-11T19:53:36.776Z,85.00
2023-03-11T19:56:06.752Z,85.00
2023-03-11T19:58:35.339Z,85.80
2023-03-11T20:01:05.455Z,85.00
2023-03-11T20:03:33.838Z,85.00
2023-03-11T20:06:06.322Z,85.00
2023-03-11T20:08:36.712Z,85.00
2023-03-11T20:11:06.206Z,85.90
2023-03-11T20:13:36.154Z,85.10
2023-03-11T20:16:11.617Z,85.10
2023-03-11T20:18:40.185Z,85.10
2023-03-11T20:21:10.198Z,85.10
2023-03-11T20:23:39.411Z,85.10
2023-03-11T20:26:08.526Z,85.10
2023-03-11T20:28:36.976Z,85.10
2023-03-11T20:31:12.843Z,85.10
2023-03-11T20:33:41.361Z,85.10
2023-03-11T20:36:13.038Z,85.00
2023-03-11T20:38:41.854Z,85.20
2023-03-11T20:41:11.026Z,85.10
2023-03-11T20:43:40.048Z,85.20
2023-03-11T20:46:11.557Z,85.90
2023-03-11T20:48:40.902Z,85.10
2023-03-11T20:51:11.691Z,85.10
2023-03-11T20:53:40.018Z,85.20
2023-03-11T20:56:10.831Z,85.10
2023-03-11T20:58:39.900Z,85.10
2023-03-11T21:01:21.489Z,85.10
2023-03-11T21:03:50.234Z,85.10
2023-03-11T21:06:20.831Z,85.20
2023-03-11T21:08:49.539Z,85.20
2023-03-11T21:11:18.794Z,85.10
2023-03-11T21:13:47.137Z,85.10
2023-03-11T21:16:15.732Z,85.20
2023-03-11T21:18:49.175Z,85.10
2023-03-11T21:21:19.728Z,85.10
2023-03-11T21:23:48.860Z,85.10
2023-03-11T21:26:18.667Z,85.10
2023-03-11T21:28:47.695Z,85.10
2023-03-11T21:31:18.107Z,85.10
2023-03-11T21:33:48.553Z,85.10
2023-03-11T21:36:17.837Z,85.00
2023-03-11T21:38:47.225Z,85.10
2023-03-11T21:41:18.158Z,85.10
2023-03-11T21:43:47.141Z,85.00
2023-03-11T21:46:18.221Z,85.10
2023-03-11T21:48:49.261Z,85.10
2023-03-11T21:51:18.934Z,85.10
2023-03-11T21:53:47.563Z,85.10
2023-03-11T21:56:16.689Z,85.10
2023-03-11T21:58:45.052Z,85.10
2023-03-11T22:01:13.958Z,85.10
2023-03-11T22:03:43.797Z,85.00
2023-03-11T22:06:14.076Z,85.10
2023-03-11T22:08:42.838Z,85.10
2023-03-11T22:11:17.583Z,85.10
2023-03-11T22:13:46.908Z,85.10
2023-03-11T22:16:15.582Z,85.10
2023-03-11T22:18:45.097Z,85.00
2023-03-11T22:21:16.191Z,85.00
2023-03-11T22:23:45.090Z,85.10
2023-03-11T22:26:14.289Z,85.00
2023-03-11T22:28:42.726Z,85.00
2023-03-11T22:31:12.388Z,85.90
2023-03-11T22:33:41.017Z,85.00
2023-03-11T22:36:09.958Z,85.00
2023-03-11T22:38:42.034Z,85.00
2023-03-11T22:41:10.699Z,85.00
2023-03-11T22:43:39.436Z,85.00
2023-03-11T22:46:08.547Z,85.00
2023-03-11T22:48:37.293Z,85.10
2023-03-11T22:51:07.279Z,85.10
2023-03-11T22:53:35.861Z,85.80
2023-03-11T22:56:10.887Z,85.00
2023-03-11T22:58:39.261Z,85.10
2023-03-11T23:01:08.013Z,85.00
2023-03-11T23:03:37.044Z,85.00
2023-03-11T23:06:08.292Z,85.10
2023-03-11T23:08:37.714Z,85.10
2023-03-11T23:11:09.593Z,85.00
2023-03-11T23:13:39.259Z,85.00
2023-03-11T23:16:09.884Z,85.10
2023-03-11T23:18:38.837Z,85.10
2023-03-11T23:21:14.407Z,85.00
2023-03-11T23:23:42.673Z,85.00
2023-03-11T23:26:13.471Z,85.00
2023-03-11T23:28:42.412Z,85.00
2023-03-11T23:31:11.906Z,85.00
2023-03-11T23:33:40.526Z,85.10
2023-03-11T23:36:11.398Z,85.00
2023-03-11T23:38:40.326Z,85.00
2023-03-11T23:41:09.649Z,85.00
2023-03-11T23:43:39.639Z,85.00
2023-03-11T23:46:10.354Z,85.00
2023-03-11T23:48:39.341Z,84.90
2023-03-11T23:51:09.378Z,85.00
2023-03-11T23:53:38.692Z,85.00
2023-03-11T23:56:11.373Z,84.90
2023-03-11T23:58:41.176Z,85.00
